Aérodrome :
LOGIN :

S'inscrire | Disclaimer

   EN    FR    IT 

 










Légende :    VFR   VFR Marginal   IFR   IFR Intensif   IFR Très Intensif
Visi : 
Plafond : 
>= 8 km
>= 3000ft
5 à 8 km
1000 à 3000 ft
1500m à 5 km
500 à 1000 ft
800 à 1500m
200 à 500 ft
< 800m
< 200 ft
Symboles :   Orages  Brouillard  Fortes neiges  Fortes précipitations  Vent > 20 kt
SIGMETs :   Divers  Orages  Givrage  Turbulence  Onde Orograph.  Cendres Volcan.






- Altitude de l'aérodrome : 53 ft
- Code IATA : HAM


EDDH - Hamburg

DERNIER METAR :
  • 210120Z 29009KT CAVOK M01/M05 Q1026 NOSIG

METARs EXPIRÉS :
  • 210050Z 28010KT CAVOK M01/M06 Q1026 NOSIG
  • 210020Z 28009KT CAVOK M01/M06 Q1026 NOSIG
  • 202350Z 29010KT CAVOK M01/M07 Q1026 NOSIG
  • 202320Z 29010KT CAVOK M01/M07 Q1026 NOSIG
  • 202250Z 29010KT CAVOK M01/M07 Q1025 NOSIG

TAF TAF EDDH
Valide du 21 à 00h jusqu'au 22 à 06h UTC


202300Z 2100/2206 29005KT CAVOK
BECMG 2110/2112 30010KT
BECMG 2113/2116 BKN012
TEMPO 2113/2124 3500 DZRA BKN007
PROB30
TEMPO 2116/2206 2500 DZ BR BKN004
PROB30
TEMPO 2120/2124 30015G25KT
TEMPO 2200/2206 BKN007



MET'MAP, la Météo Aéronautique d'un coup d'oeil ! - Copyright ORBIFLY Décembre 2007 - Disclaimer

ORBIFLY MET'MAP TEAM :

Programmation & Développement : Alexandra Zaïnal
Sur une idée originale de : Baudouin d'Aumeries
Assistance à la programmation : Marc-Olivier Méhu
Soutien technique & logistique : Manuel Goepfert

Contact : metmap@orbifly.com




SOURCES & CREDITS :

   NOAA